createdAt,value
2019-03-21T00:05:25.396Z,16.10
2019-03-21T00:11:57.147Z,16.10
2019-03-21T00:18:19.304Z,16.00
2019-03-21T00:24:22.036Z,16.00
2019-03-21T00:30:26.002Z,16.00
2019-03-21T00:36:29.072Z,15.90
2019-03-21T00:42:32.091Z,15.90
2019-03-21T00:48:34.836Z,15.90
2019-03-21T00:54:37.559Z,15.90
2019-03-21T01:00:43.785Z,15.80
2019-03-21T01:06:46.510Z,15.80
2019-03-21T01:12:49.331Z,15.70
2019-03-21T01:19:11.736Z,15.70
2019-03-21T01:25:27.128Z,15.70
2019-03-21T01:31:29.865Z,15.60
2019-03-21T01:37:32.596Z,15.60
2019-03-21T01:43:35.333Z,15.60
2019-03-21T01:49:38.056Z,15.60
2019-03-21T01:55:40.791Z,15.60
2019-03-21T02:01:43.521Z,15.50
2019-03-21T02:07:46.252Z,15.40
2019-03-21T02:13:48.984Z,15.40
2019-03-21T02:19:51.723Z,15.40
2019-03-21T02:25:54.454Z,15.40
2019-03-21T02:31:57.501Z,15.40
2019-03-21T02:38:00.229Z,15.30
2019-03-21T02:44:02.951Z,15.30
2019-03-21T02:50:08.944Z,15.30
2019-03-21T02:56:15.391Z,15.20
2019-03-21T03:02:18.141Z,15.20
2019-03-21T03:08:21.013Z,15.20
2019-03-21T03:14:23.736Z,15.20
2019-03-21T03:20:26.468Z,15.10
2019-03-21T03:26:29.203Z,15.10
2019-03-21T03:32:31.933Z,15.10
2019-03-21T03:38:34.661Z,15.00
2019-03-21T03:44:37.384Z,15.00
2019-03-21T03:50:40.116Z,15.00
2019-03-21T03:56:42.837Z,15.00
2019-03-21T04:02:46.813Z,14.90
2019-03-21T04:08:49.904Z,14.90
2019-03-21T04:14:52.898Z,14.90
2019-03-21T04:20:59.212Z,14.90
2019-03-21T04:27:02.193Z,14.90
2019-03-21T04:33:05.207Z,15.00
2019-03-21T04:39:09.176Z,15.00
2019-03-21T04:45:22.442Z,15.10
2019-03-21T04:51:25.242Z,15.10
2019-03-21T04:57:27.964Z,15.20
2019-03-21T05:03:31.734Z,15.30
2019-03-21T05:09:34.464Z,15.30
2019-03-21T05:15:41.714Z,15.40
2019-03-21T05:21:44.684Z,15.40
2019-03-21T05:27:47.412Z,15.50
2019-03-21T05:33:50.140Z,15.50
2019-03-21T05:39:53.184Z,15.50
2019-03-21T05:45:55.906Z,15.50
2019-03-21T05:51:58.628Z,15.50
2019-03-21T05:58:01.405Z,15.50
2019-03-21T06:04:04.151Z,15.50
2019-03-21T06:10:12.751Z,15.40
2019-03-21T06:16:15.487Z,15.40
2019-03-21T06:22:27.061Z,15.40
2019-03-21T06:28:31.598Z,15.40
2019-03-21T06:34:34.324Z,15.40
2019-03-21T06:40:37.052Z,15.40
2019-03-21T06:46:48.723Z,15.40
2019-03-21T06:52:44.234Z,15.50
2019-03-21T06:58:46.967Z,15.50
2019-03-21T07:04:49.976Z,15.50
2019-03-21T07:10:52.700Z,15.50
2019-03-21T07:17:00.278Z,15.50
2019-03-21T07:22:59.879Z,15.50
2019-03-21T07:29:02.603Z,15.50
2019-03-21T07:35:06.676Z,15.50
2019-03-21T07:41:09.399Z,15.50
2019-03-21T07:47:13.422Z,15.50
2019-03-21T07:53:16.730Z,15.50
2019-03-21T07:59:19.459Z,15.60
2019-03-21T08:05:22.185Z,15.60
2019-03-21T08:11:24.984Z,15.70
2019-03-21T08:17:28.060Z,15.70
2019-03-21T08:23:30.785Z,15.70
2019-03-21T08:29:33.517Z,15.70
2019-03-21T08:35:36.239Z,15.70
2019-03-21T08:41:38.968Z,15.80
2019-03-21T08:47:41.691Z,15.80
2019-03-21T08:53:44.524Z,15.80
2019-03-21T08:59:48.094Z,15.80
2019-03-21T09:05:50.980Z,15.90
2019-03-21T09:11:53.764Z,15.90
2019-03-21T09:17:56.572Z,15.90
2019-03-21T09:23:59.303Z,15.90
2019-03-21T09:30:03.063Z,16.00
2019-03-21T09:36:05.788Z,16.00
2019-03-21T09:42:08.783Z,16.00
2019-03-21T09:48:11.515Z,16.00
2019-03-21T09:54:14.331Z,16.10
2019-03-21T10:00:29.231Z,16.10
2019-03-21T10:06:32.303Z,16.10
2019-03-21T10:12:35.026Z,16.20
2019-03-21T10:18:37.751Z,16.20
2019-03-21T10:24:40.483Z,16.20
2019-03-21T10:30:43.208Z,16.30
2019-03-21T10:36:45.940Z,16.30
2019-03-21T10:42:48.664Z,16.30
2019-03-21T10:48:51.738Z,16.30
2019-03-21T10:54:54.461Z,16.40
2019-03-21T11:00:57.288Z,16.40
2019-03-21T11:06:59.115Z,16.40
2019-03-21T11:13:02.103Z,16.40
2019-03-21T11:19:04.831Z,16.50
2019-03-21T11:25:07.559Z,16.50
2019-03-21T11:31:10.283Z,16.50
2019-03-21T11:37:13.007Z,16.60
2019-03-21T11:43:15.820Z,16.60
2019-03-21T11:49:18.884Z,16.60
2019-03-21T11:55:21.619Z,16.70
2019-03-21T12:01:24.337Z,16.70
2019-03-21T12:07:27.056Z,16.70
2019-03-21T12:13:30.109Z,16.80
2019-03-21T12:19:32.836Z,16.80
2019-03-21T12:25:35.558Z,16.80
2019-03-21T12:31:38.628Z,16.90
2019-03-21T12:37:41.355Z,16.90
2019-03-21T12:43:44.079Z,17.00
2019-03-21T12:49:47.050Z,17.00
2019-03-21T12:55:49.772Z,17.00
2019-03-21T13:01:52.496Z,17.10
2019-03-21T13:07:55.219Z,17.10
2019-03-21T13:13:58.272Z,17.20
2019-03-21T13:20:00.997Z,17.20
2019-03-21T13:26:03.729Z,17.30
2019-03-21T13:32:06.452Z,17.30
2019-03-21T13:38:09.181Z,17.40
2019-03-21T13:44:11.903Z,17.40
2019-03-21T13:50:14.904Z,17.50
2019-03-21T13:56:17.632Z,17.50
2019-03-21T14:02:20.355Z,17.60
2019-03-21T14:08:23.263Z,17.60
2019-03-21T14:14:26.058Z,17.60
2019-03-21T14:20:28.784Z,17.60
2019-03-21T14:26:31.508Z,17.70
2019-03-21T14:32:34.232Z,17.70
2019-03-21T14:38:36.956Z,17.80
2019-03-21T14:44:39.683Z,17.80
2019-03-21T14:50:42.403Z,17.90
2019-03-21T14:56:45.120Z,17.90
2019-03-21T15:02:47.846Z,17.90
2019-03-21T15:08:50.576Z,18.00
2019-03-21T15:14:53.308Z,18.00
2019-03-21T15:20:56.033Z,18.10
2019-03-21T15:26:58.757Z,18.10
2019-03-21T15:33:01.487Z,18.10
2019-03-21T15:39:06.852Z,18.20
2019-03-21T15:45:22.021Z,18.20
2019-03-21T15:51:15.968Z,18.30
2019-03-21T15:57:18.694Z,18.30
2019-03-21T16:03:21.427Z,18.30
2019-03-21T16:09:24.155Z,18.40
2019-03-21T16:15:26.879Z,18.40
2019-03-21T16:21:29.604Z,18.40
2019-03-21T16:27:32.328Z,18.50
2019-03-21T16:33:35.052Z,18.50
2019-03-21T16:39:37.781Z,18.50
2019-03-21T16:45:40.504Z,18.50
2019-03-21T16:51:43.236Z,18.60
2019-03-21T16:57:45.967Z,18.60
2019-03-21T17:03:48.692Z,18.60
2019-03-21T17:09:51.451Z,18.60
2019-03-21T17:15:54.181Z,18.70
2019-03-21T17:21:56.911Z,18.70
2019-03-21T17:27:59.638Z,18.80
2019-03-21T17:34:04.139Z,18.80
2019-03-21T17:40:09.112Z,18.80
2019-03-21T17:46:11.834Z,18.80
2019-03-21T17:52:14.556Z,18.80
2019-03-21T17:58:17.547Z,18.80
2019-03-21T18:04:20.570Z,18.80
2019-03-21T18:10:28.132Z,18.80
2019-03-21T18:16:30.880Z,18.80
2019-03-21T18:22:33.607Z,18.80
2019-03-21T18:28:36.705Z,18.80
2019-03-21T18:34:39.432Z,18.90
2019-03-21T18:40:42.162Z,18.90
2019-03-21T18:46:44.897Z,18.90
2019-03-21T18:52:47.665Z,18.80
2019-03-21T18:58:50.732Z,18.80
2019-03-21T19:04:53.460Z,18.80
2019-03-21T19:10:56.190Z,18.80
2019-03-21T19:16:58.916Z,18.80
2019-03-21T19:23:01.645Z,18.80
2019-03-21T19:29:04.439Z,18.80
2019-03-21T19:35:07.186Z,18.80
2019-03-21T19:41:09.907Z,18.70
2019-03-21T19:47:23.126Z,18.70
2019-03-21T19:53:17.731Z,18.70
2019-03-21T19:59:20.743Z,18.60
2019-03-21T20:05:23.479Z,18.60
2019-03-21T20:11:26.225Z,18.60
2019-03-21T20:17:29.282Z,18.60
2019-03-21T20:23:32.005Z,18.60
2019-03-21T20:29:34.740Z,18.50
2019-03-21T20:35:37.464Z,18.50
2019-03-21T20:41:40.192Z,18.50
2019-03-21T20:47:42.934Z,18.50
2019-03-21T20:53:45.663Z,18.50
2019-03-21T20:59:48.384Z,18.40
2019-03-21T21:05:51.408Z,18.40
2019-03-21T21:11:54.135Z,18.40
2019-03-21T21:17:57.123Z,18.40
2019-03-21T21:24:00.136Z,18.40
2019-03-21T21:30:04.403Z,18.30
2019-03-21T21:36:07.134Z,18.30
2019-03-21T21:42:09.859Z,18.20
2019-03-21T21:48:12.587Z,18.20
2019-03-21T21:54:15.323Z,18.20
2019-03-21T22:00:20.253Z,18.10
2019-03-21T22:06:22.979Z,18.10
2019-03-21T22:12:25.708Z,18.10
2019-03-21T22:18:28.432Z,18.00
2019-03-21T22:24:31.161Z,18.00
2019-03-21T22:30:33.889Z,18.00
2019-03-21T22:36:48.702Z,17.90
2019-03-21T22:42:41.351Z,17.90
2019-03-21T22:48:44.340Z,17.80
2019-03-21T22:54:47.067Z,17.80
2019-03-21T23:00:50.274Z,17.80
2019-03-21T23:06:52.999Z,17.80
2019-03-21T23:12:55.815Z,17.70
2019-03-21T23:18:58.544Z,17.70
2019-03-21T23:25:01.273Z,17.70
2019-03-21T23:31:04.002Z,17.70
2019-03-21T23:37:06.726Z,17.60
2019-03-21T23:43:09.455Z,17.60
2019-03-21T23:49:12.236Z,17.60
2019-03-21T23:55:14.959Z,17.60
